Time;durP1;ratioP1;P1;durP2;ratioP2;P2;SDS_P1;SDS_P2;PMS_P1;PMS_P2;Temp;Humidity;BMP_temperature;BMP_pressure;BME280_temperature;BME280_humidity;BME280_pressure;Samples;Min_cycle;Max_cycle;Signal;HPM_P1;HPM_P2
2021/01/18 00:01:21;;;;;;;17.08;11.02;;;;;;;;;;5032402;28;19913;-72
2021/01/18 00:03:47;;;;;;;19.25;11.80;;;;;;;;;;5047904;28;20155;-75
2021/01/18 00:06:17;;;;;;;18.67;11.65;;;;;;;;;;5052231;28;20021;-73
2021/01/18 00:08:44;;;;;;;20.27;12.38;;;;;;;;;;5052010;28;20029;-70
2021/01/18 00:11:11;;;;;;;17.48;11.15;;;;;;;;;;5052085;28;20553;-71
2021/01/18 00:13:37;;;;;;;16.38;11.35;;;;;;;;;;5049973;28;20029;-72
2021/01/18 00:16:03;;;;;;;18.13;11.30;;;;;;;;;;5051596;28;20020;-73
2021/01/18 00:18:32;;;;;;;19.70;11.13;;;;;;;;;;5050519;28;20025;-74
2021/01/18 00:20:58;;;;;;;18.70;11.82;;;;;;;;;;5050596;28;20028;-71
2021/01/18 00:23:25;;;;;;;19.20;11.90;;;;;;;;;;5050739;28;20056;-73
2021/01/18 00:25:51;;;;;;;19.38;11.70;;;;;;;;;;5052319;28;20021;-70
2021/01/18 00:28:18;;;;;;;17.70;11.73;;;;;;;;;;5051604;28;20020;-73
2021/01/18 00:30:44;;;;;;;17.83;11.80;;;;;;;;;;5049463;28;20033;-70
2021/01/18 00:33:10;;;;;;;17.23;11.55;;;;;;;;;;5051834;28;20021;-74
2021/01/18 00:35:36;;;;;;;16.05;11.10;;;;;;;;;;5050295;28;20028;-79
2021/01/18 00:38:02;;;;;;;18.52;11.38;;;;;;;;;;5050426;28;20500;-84
2021/01/18 00:40:29;;;;;;;18.75;11.40;;;;;;;;;;5052044;28;20427;-81
2021/01/18 00:42:55;;;;;;;18.35;12.38;;;;;;;;;;5051614;28;20618;-75
2021/01/18 00:45:22;;;;;;;19.25;11.88;;;;;;;;;;5051494;28;20078;-77
2021/01/18 00:47:49;;;;;;;19.17;11.32;;;;;;;;;;5047271;28;20488;-75
2021/01/18 00:50:16;;;;;;;17.25;12.13;;;;;;;;;;5051227;28;20045;-73
2021/01/18 00:52:46;;;;;;;20.95;12.95;;;;;;;;;;5048080;28;20021;-74
2021/01/18 00:55:13;;;;;;;16.65;11.70;;;;;;;;;;5048796;28;20035;-75
2021/01/18 00:57:39;;;;;;;16.13;10.88;;;;;;;;;;5046683;28;20072;-72
2021/01/18 01:00:07;;;;;;;16.92;11.48;;;;;;;;;;5031752;28;20125;-74
2021/01/18 01:02:33;;;;;;;15.68;11.40;;;;;;;;;;5063737;28;20026;-75
2021/01/18 01:04:59;;;;;;;15.85;11.43;;;;;;;;;;5031658;28;20021;-75
2021/01/18 01:07:25;;;;;;;15.82;11.48;;;;;;;;;;5031614;28;20026;-75
2021/01/18 01:09:51;;;;;;;26.33;13.93;;;;;;;;;;5031434;28;20034;-75
2021/01/18 01:12:20;;;;;;;26.88;12.70;;;;;;;;;;5044276;28;20419;-73
2021/01/18 01:14:47;;;;;;;24.25;12.52;;;;;;;;;;5051153;28;20102;-73
2021/01/18 01:17:13;;;;;;;25.23;12.23;;;;;;;;;;5049955;28;20099;-76
2021/01/18 01:19:39;;;;;;;22.05;12.68;;;;;;;;;;5051029;28;20025;-75
2021/01/18 01:22:05;;;;;;;22.83;12.32;;;;;;;;;;5051402;28;20024;-75
2021/01/18 01:24:31;;;;;;;26.90;12.77;;;;;;;;;;5050207;28;20086;-75
2021/01/18 01:26:57;;;;;;;19.75;12.35;;;;;;;;;;5051567;28;20096;-74
2021/01/18 01:29:23;;;;;;;23.40;12.20;;;;;;;;;;5051302;28;20104;-74
2021/01/18 01:31:49;;;;;;;21.33;11.85;;;;;;;;;;5051188;28;20028;-74
2021/01/18 01:34:15;;;;;;;22.50;11.45;;;;;;;;;;5051145;28;20021;-75
2021/01/18 01:36:42;;;;;;;24.10;12.48;;;;;;;;;;5051053;28;20112;-74
2021/01/18 01:39:08;;;;;;;19.15;11.63;;;;;;;;;;5051114;28;20028;-74
2021/01/18 01:41:34;;;;;;;20.30;12.30;;;;;;;;;;5051157;28;20067;-75
2021/01/18 01:44:00;;;;;;;20.70;12.20;;;;;;;;;;5049872;28;20080;-74
2021/01/18 01:46:26;;;;;;;19.33;11.82;;;;;;;;;;5051097;28;20025;-72
2021/01/18 01:48:53;;;;;;;17.73;11.80;;;;;;;;;;5051227;28;20044;-74
2021/01/18 01:51:19;;;;;;;18.58;11.50;;;;;;;;;;5049965;28;20048;-75
2021/01/18 01:53:45;;;;;;;18.60;11.70;;;;;;;;;;5049769;28;20032;-75
2021/01/18 01:56:11;;;;;;;19.73;11.50;;;;;;;;;;5051077;28;20021;-74
2021/01/18 01:58:37;;;;;;;17.60;10.95;;;;;;;;;;5051038;28;20036;-71
2021/01/18 02:01:04;;;;;;;16.40;10.98;;;;;;;;;;5049726;28;20136;-71
2021/01/18 02:03:30;;;;;;;15.63;11.27;;;;;;;;;;5050998;28;20024;-71
2021/01/18 02:05:57;;;;;;;19.10;12.10;;;;;;;;;;5051023;28;20021;-74
2021/01/18 02:08:23;;;;;;;17.55;11.55;;;;;;;;;;5054010;28;20100;-72
2021/01/18 02:10:49;;;;;;;20.00;11.35;;;;;;;;;;5053506;28;20397;-71
2021/01/18 02:13:18;;;;;;;17.45;11.48;;;;;;;;;;5053398;28;20454;-72
2021/01/18 02:15:47;;;;;;;19.23;11.43;;;;;;;;;;5054696;28;20060;-71
2021/01/18 02:18:19;;;;;;;15.48;10.98;;;;;;;;;;5054650;28;20021;-72
2021/01/18 02:21:04;;;;;;;18.33;11.57;;;;;;;;;;5054579;28;20508;-71
2021/01/18 02:23:49;;;;;;;17.90;11.05;;;;;;;;;;5053059;28;20025;-72
2021/01/18 02:26:15;;;;;;;18.63;12.20;;;;;;;;;;5052729;28;20365;-75
2021/01/18 02:28:44;;;;;;;18.58;11.43;;;;;;;;;;5054296;28;20025;-75
2021/01/18 02:31:19;;;;;;;15.30;10.88;;;;;;;;;;5054493;28;20365;-75
2021/01/18 02:33:57;;;;;;;15.45;11.20;;;;;;;;;;5054315;28;20103;-72
2021/01/18 02:36:29;;;;;;;16.20;10.93;;;;;;;;;;5052893;28;20025;-72
2021/01/18 02:38:55;;;;;;;17.90;11.23;;;;;;;;;;5052913;28;20029;-72
2021/01/18 02:41:21;;;;;;;18.08;11.27;;;;;;;;;;5054043;28;20408;-70
2021/01/18 02:43:49;;;;;;;19.48;11.82;;;;;;;;;;5054850;28;20523;-75
2021/01/18 02:46:17;;;;;;;15.95;10.77;;;;;;;;;;5055612;28;20392;-72
2021/01/18 02:48:43;;;;;;;19.23;11.45;;;;;;;;;;5054148;28;20051;-76
2021/01/18 02:51:11;;;;;;;16.65;10.68;;;;;;;;;;5055469;28;20031;-74
2021/01/18 02:53:38;;;;;;;17.85;11.00;;;;;;;;;;5055007;28;20028;-71
2021/01/18 02:56:06;;;;;;;17.92;10.63;;;;;;;;;;5053925;28;20060;-71
2021/01/18 02:58:35;;;;;;;16.00;10.38;;;;;;;;;;5053889;28;20349;-73
2021/01/18 03:01:21;;;;;;;15.57;10.07;;;;;;;;;;5052578;28;20036;-71
2021/01/18 03:04:13;;;;;;;18.08;11.32;;;;;;;;;;5053773;28;20370;-71
2021/01/18 03:06:43;;;;;;;15.35;10.45;;;;;;;;;;5045200;28;20033;-73
2021/01/18 03:09:20;;;;;;;16.40;10.80;;;;;;;;;;5053627;28;20098;-71
2021/01/18 03:11:50;;;;;;;15.95;11.15;;;;;;;;;;5053671;28;20071;-71
2021/01/18 03:14:23;;;;;;;16.95;10.90;;;;;;;;;;5053535;28;20027;-71
2021/01/18 03:16:50;;;;;;;17.08;11.45;;;;;;;;;;5052156;28;20025;-71
2021/01/18 03:19:18;;;;;;;16.60;10.60;;;;;;;;;;5052490;28;20029;-72
2021/01/18 03:21:47;;;;;;;18.02;10.88;;;;;;;;;;5053549;28;20029;-71
2021/01/18 03:24:21;;;;;;;15.85;9.85;;;;;;;;;;5053365;28;20489;-72
2021/01/18 03:26:47;;;;;;;15.90;10.93;;;;;;;;;;5053374;28;20029;-70
2021/01/18 03:29:14;;;;;;;15.00;10.60;;;;;;;;;;5051885;28;20056;-72
2021/01/18 03:31:40;;;;;;;17.00;10.75;;;;;;;;;;5051866;28;20025;-71
2021/01/18 03:34:06;;;;;;;15.45;10.05;;;;;;;;;;5053167;28;20009;-71
2021/01/18 03:36:32;;;;;;;16.48;10.68;;;;;;;;;;5051929;28;20021;-71
2021/01/18 03:38:58;;;;;;;15.32;10.10;;;;;;;;;;5053072;28;20538;-72
2021/01/18 03:41:24;;;;;;;16.85;10.57;;;;;;;;;;5053125;28;20063;-70
2021/01/18 03:43:50;;;;;;;14.55;9.77;;;;;;;;;;5052875;28;20099;-73
2021/01/18 03:46:16;;;;;;;17.30;11.05;;;;;;;;;;5053005;28;20033;-72
2021/01/18 03:48:42;;;;;;;17.17;10.80;;;;;;;;;;5051488;28;20483;-71
2021/01/18 03:51:08;;;;;;;17.48;10.73;;;;;;;;;;5051838;28;20381;-71
2021/01/18 03:53:34;;;;;;;16.88;10.60;;;;;;;;;;5052783;28;20025;-71
2021/01/18 03:56:00;;;;;;;17.40;10.80;;;;;;;;;;5052682;28;20175;-72
2021/01/18 03:58:26;;;;;;;18.52;11.38;;;;;;;;;;5052737;28;20025;-72
2021/01/18 04:00:52;;;;;;;18.20;10.80;;;;;;;;;;5052665;28;20025;-72
2021/01/18 04:03:19;;;;;;;15.02;9.88;;;;;;;;;;5052330;28;20028;-73
2021/01/18 04:05:45;;;;;;;17.98;10.90;;;;;;;;;;5052410;28;20049;-71
2021/01/18 04:08:11;;;;;;;15.68;10.68;;;;;;;;;;5052275;28;20047;-74
2021/01/18 04:10:38;;;;;;;17.90;11.10;;;;;;;;;;5052203;28;20044;-72
2021/01/18 04:13:04;;;;;;;16.35;10.15;;;;;;;;;;5052225;28;20120;-71
2021/01/18 04:15:30;;;;;;;14.63;9.50;;;;;;;;;;5052474;28;20470;-74
2021/01/18 04:17:57;;;;;;;16.60;10.65;;;;;;;;;;5046945;28;20059;-74
2021/01/18 04:20:23;;;;;;;16.95;10.30;;;;;;;;;;5050989;28;20017;-72
2021/01/18 04:22:56;;;;;;;17.50;10.35;;;;;;;;;;5050993;28;20036;-71
2021/01/18 04:25:24;;;;;;;14.30;9.15;;;;;;;;;;5052237;28;20029;-71
2021/01/18 04:27:52;;;;;;;17.27;10.48;;;;;;;;;;5052097;28;20480;-71
2021/01/18 04:30:19;;;;;;;15.15;10.10;;;;;;;;;;5050632;28;20043;-72
2021/01/18 04:32:53;;;;;;;15.68;9.85;;;;;;;;;;5047136;28;20101;-74
2021/01/18 04:35:20;;;;;;;15.00;9.60;;;;;;;;;;5052043;28;20018;-74
2021/01/18 04:37:46;;;;;;;16.90;10.57;;;;;;;;;;5052075;28;20031;-71
2021/01/18 04:40:12;;;;;;;16.00;10.15;;;;;;;;;;5051818;28;20068;-75
2021/01/18 04:42:38;;;;;;;16.88;9.90;;;;;;;;;;5050371;28;20118;-71
2021/01/18 04:45:04;;;;;;;18.42;9.82;;;;;;;;;;5051753;28;20057;-71
2021/01/18 04:47:30;;;;;;;14.60;9.93;;;;;;;;;;5051761;28;20029;-74
2021/01/18 04:49:57;;;;;;;15.55;9.73;;;;;;;;;;5050503;28;20037;-71
2021/01/18 04:52:38;;;;;;;13.82;9.60;;;;;;;;;;5051855;28;20021;-72
2021/01/18 04:55:09;;;;;;;15.70;9.90;;;;;;;;;;5050524;28;20025;-71
2021/01/18 04:57:38;;;;;;;16.38;10.18;;;;;;;;;;5051641;28;20017;-71
2021/01/18 05:00:05;;;;;;;16.10;9.70;;;;;;;;;;5051608;28;20028;-71
2021/01/18 05:02:38;;;;;;;15.38;9.80;;;;;;;;;;5050272;28;20095;-71
2021/01/18 05:05:07;;;;;;;18.75;10.88;;;;;;;;;;5051699;28;20021;-72
2021/01/18 05:07:35;;;;;;;16.08;9.95;;;;;;;;;;5051628;28;20049;-71
2021/01/18 05:10:09;;;;;;;16.75;10.40;;;;;;;;;;5050036;28;20029;-71
2021/01/18 05:12:39;;;;;;;14.70;9.48;;;;;;;;;;5051491;28;20025;-75
2021/01/18 05:15:14;;;;;;;14.00;8.95;;;;;;;;;;5050306;28;20167;-71
2021/01/18 05:17:42;;;;;;;14.73;9.43;;;;;;;;;;5050172;28;20067;-71
2021/01/18 05:20:11;;;;;;;15.02;8.98;;;;;;;;;;5051483;28;20097;-71
2021/01/18 05:22:40;;;;;;;14.57;9.25;;;;;;;;;;5051311;28;20013;-71
2021/01/18 05:25:06;;;;;;;14.63;9.43;;;;;;;;;;5050052;28;20024;-71
2021/01/18 05:27:33;;;;;;;14.27;9.00;;;;;;;;;;5050078;28;20426;-71
2021/01/18 05:29:59;;;;;;;18.38;9.90;;;;;;;;;;5050009;28;20061;-71
2021/01/18 05:32:26;;;;;;;13.15;8.90;;;;;;;;;;5051226;28;20353;-73
2021/01/18 05:35:12;;;;;;;14.70;9.40;;;;;;;;;;5051238;28;20029;-71
2021/01/18 05:37:58;;;;;;;19.13;9.38;;;;;;;;;;5049772;28;20021;-72
2021/01/18 05:40:24;;;;;;;15.57;9.52;;;;;;;;;;5051143;28;20114;-71
2021/01/18 05:42:51;;;;;;;15.60;10.02;;;;;;;;;;5053480;28;20048;-74
2021/01/18 05:45:34;;;;;;;16.92;9.25;;;;;;;;;;5053953;28;20383;-71
2021/01/18 05:48:00;;;;;;;;;;;;;;;;;;5055788;28;20104;-71
2021/01/18 05:50:27;;;;;;;15.02;9.25;;;;;;;;;;5054812;28;20446;-71
2021/01/18 05:52:53;;;;;;;16.77;9.55;;;;;;;;;;5053761;28;20028;-71
2021/01/18 05:55:25;;;;;;;14.98;8.68;;;;;;;;;;5054975;28;20116;-74
2021/01/18 05:57:54;;;;;;;15.93;9.25;;;;;;;;;;5053676;28;20120;-72
2021/01/18 06:00:25;;;;;;;14.85;8.93;;;;;;;;;;5053502;28;20025;-74
2021/01/18 06:02:51;;;;;;;15.68;9.50;;;;;;;;;;5053434;28;20484;-71
2021/01/18 06:05:23;;;;;;;15.98;9.38;;;;;;;;;;5054620;28;20411;-71
2021/01/18 06:07:50;;;;;;;14.90;9.00;;;;;;;;;;5054691;28;20542;-71
2021/01/18 06:10:17;;;;;;;15.95;9.57;;;;;;;;;;5054713;28;20040;-71
2021/01/18 06:12:43;;;;;;;14.50;8.95;;;;;;;;;;5053318;28;20052;-71
2021/01/18 06:15:15;;;;;;;17.30;9.43;;;;;;;;;;5054606;28;20028;-71
2021/01/18 06:17:45;;;;;;;14.02;8.80;;;;;;;;;;5053256;28;20041;-71
2021/01/18 06:20:18;;;;;;;15.35;9.63;;;;;;;;;;5054598;28;20028;-73
2021/01/18 06:23:00;;;;;;;16.35;9.02;;;;;;;;;;5053267;28;20021;-71
2021/01/18 06:25:33;;;;;;;16.58;9.35;;;;;;;;;;5052998;28;20496;-71
2021/01/18 06:27:59;;;;;;;15.20;9.32;;;;;;;;;;5054133;28;20051;-74
2021/01/18 06:30:27;;;;;;;19.40;9.30;;;;;;;;;;5053339;28;20032;-72
2021/01/18 06:32:54;;;;;;;18.30;9.57;;;;;;;;;;5053082;28;20079;-75
2021/01/18 06:35:21;;;;;;;17.90;9.00;;;;;;;;;;5053794;28;20033;-71
2021/01/18 06:37:54;;;;;;;15.48;9.77;;;;;;;;;;5054132;28;20441;-71
2021/01/18 06:40:25;;;;;;;14.55;9.27;;;;;;;;;;5054092;28;20036;-71
2021/01/18 06:42:51;;;;;;;14.65;9.27;;;;;;;;;;5052477;28;20128;-72
2021/01/18 06:45:21;;;;;;;15.50;10.27;;;;;;;;;;5053995;28;20472;-71
2021/01/18 06:47:47;;;;;;;16.77;10.15;;;;;;;;;;5052720;28;20017;-72
2021/01/18 06:50:14;;;;;;;15.98;9.10;;;;;;;;;;5053821;28;20076;-71
2021/01/18 06:52:46;;;;;;;15.18;9.82;;;;;;;;;;5053473;28;20025;-74
2021/01/18 06:55:17;;;;;;;17.27;9.15;;;;;;;;;;5053130;28;20060;-71
2021/01/18 06:57:46;;;;;;;16.05;9.77;;;;;;;;;;5053910;28;20028;-72
2021/01/18 07:00:16;;;;;;;15.82;9.05;;;;;;;;;;5053586;28;20025;-72
2021/01/18 07:03:02;;;;;;;13.77;8.43;;;;;;;;;;5053291;28;20025;-72
2021/01/18 07:05:32;;;;;;;13.88;8.85;;;;;;;;;;5052236;28;20459;-72
2021/01/18 07:08:12;;;;;;;14.57;8.85;;;;;;;;;;5053640;28;20013;-72
2021/01/18 07:10:40;;;;;;;17.63;8.50;;;;;;;;;;5050186;28;20515;-71
2021/01/18 07:13:06;;;;;;;13.38;8.82;;;;;;;;;;5052087;28;20029;-72
2021/01/18 07:15:36;;;;;;;15.52;9.68;;;;;;;;;;5052144;28;20057;-72
2021/01/18 07:18:05;;;;;;;16.55;9.63;;;;;;;;;;5053365;28;20046;-72
2021/01/18 07:20:35;;;;;;;15.82;8.10;;;;;;;;;;5049930;28;20029;-72
2021/01/18 07:23:07;;;;;;;14.15;9.00;;;;;;;;;;5051988;28;20116;-73
2021/01/18 07:25:44;;;;;;;14.05;9.00;;;;;;;;;;5051846;28;20043;-71
2021/01/18 07:28:12;;;;;;;14.02;9.18;;;;;;;;;;5053244;28;20423;-72
2021/01/18 07:30:39;;;;;;;14.73;9.23;;;;;;;;;;5052845;28;20079;-72
2021/01/18 07:33:15;;;;;;;15.55;9.55;;;;;;;;;;5053061;28;20107;-75
2021/01/18 07:35:42;;;;;;;17.00;9.75;;;;;;;;;;5051884;28;20027;-72
2021/01/18 07:38:15;;;;;;;12.63;8.38;;;;;;;;;;5053278;28;20044;-73
2021/01/18 07:40:42;;;;;;;13.88;8.38;;;;;;;;;;5052975;28;20032;-72
2021/01/18 07:43:09;;;;;;;15.07;8.98;;;;;;;;;;5052657;28;20083;-72
2021/01/18 07:45:35;;;;;;;17.23;9.70;;;;;;;;;;5053005;28;20016;-72
2021/01/18 07:48:01;;;;;;;13.65;8.73;;;;;;;;;;5051726;28;20128;-72
2021/01/18 07:50:35;;;;;;;17.50;8.70;;;;;;;;;;5052830;28;20104;-72
2021/01/18 07:53:02;;;;;;;13.77;8.77;;;;;;;;;;5052717;28;20021;-72
2021/01/18 07:55:28;;;;;;;13.57;8.52;;;;;;;;;;5052314;28;20029;-75
2021/01/18 07:57:54;;;;;;;14.52;8.38;;;;;;;;;;5052290;28;20017;-73
2021/01/18 08:00:24;;;;;;;13.70;8.23;;;;;;;;;;5051265;28;20029;-73
2021/01/18 08:02:54;;;;;;;14.70;8.20;;;;;;;;;;5052488;28;20483;-72
2021/01/18 08:05:23;;;;;;;17.60;8.65;;;;;;;;;;5052167;28;20439;-72
2021/01/18 08:08:18;;;;;;;16.10;8.82;;;;;;;;;;5052312;28;20021;-72
2021/01/18 08:10:54;;;;;;;13.75;7.80;;;;;;;;;;5042173;28;20459;-72
2021/01/18 08:13:32;;;;;;;13.88;8.48;;;;;;;;;;5050629;28;20372;-73
2021/01/18 08:15:59;;;;;;;13.82;8.20;;;;;;;;;;5045676;28;20036;-75
2021/01/18 08:18:27;;;;;;;15.38;8.27;;;;;;;;;;5039597;28;20060;-72
2021/01/18 08:20:53;;;;;;;14.10;8.05;;;;;;;;;;5037385;28;20028;-72
2021/01/18 08:23:37;;;;;;;16.52;8.70;;;;;;;;;;5051864;28;20365;-73
2021/01/18 08:26:05;;;;;;;15.13;8.60;;;;;;;;;;5052158;28;20587;-72
2021/01/18 08:28:34;;;;;;;16.98;8.30;;;;;;;;;;5050705;28;20032;-73
2021/01/18 08:31:00;;;;;;;12.50;7.90;;;;;;;;;;5051886;28;20045;-72
2021/01/18 08:33:27;;;;;;;13.57;7.32;;;;;;;;;;5049396;28;20469;-72
2021/01/18 08:35:55;;;;;;;13.65;7.88;;;;;;;;;;5032190;28;20025;-73
2021/01/18 08:38:23;;;;;;;12.55;7.45;;;;;;;;;;5031995;28;20026;-74
2021/01/18 08:40:50;;;;;;;12.73;7.18;;;;;;;;;;5051259;28;20024;-74
2021/01/18 08:43:18;;;;;;;11.23;7.15;;;;;;;;;;5051232;28;20516;-75
2021/01/18 08:45:51;;;;;;;11.77;6.85;;;;;;;;;;5050429;28;20647;-74
2021/01/18 08:48:32;;;;;;;15.63;6.80;;;;;;;;;;5051555;28;20095;-73
2021/01/18 08:50:59;;;;;;;11.75;7.20;;;;;;;;;;5051252;28;20079;-74
2021/01/18 08:53:32;;;;;;;14.02;7.63;;;;;;;;;;5051088;28;20061;-74
2021/01/18 08:55:58;;;;;;;21.75;7.05;;;;;;;;;;5050027;28;20098;-75
2021/01/18 08:58:36;;;;;;;11.13;6.18;;;;;;;;;;5051278;28;20024;-79
2021/01/18 09:01:03;;;;;;;11.30;6.95;;;;;;;;;;5051136;28;20028;-78
2021/01/18 09:03:29;;;;;;;10.85;6.40;;;;;;;;;;5050182;28;20058;-75
2021/01/18 09:05:57;;;;;;;9.20;6.07;;;;;;;;;;5051875;28;20017;-74
2021/01/18 09:08:26;;;;;;;15.73;6.63;;;;;;;;;;5050178;28;20035;-79
2021/01/18 09:11:00;;;;;;;10.93;5.90;;;;;;;;;;5048665;28;20037;-74
2021/01/18 09:13:27;;;;;;;10.75;6.65;;;;;;;;;;5049665;28;20384;-74
2021/01/18 09:15:54;;;;;;;11.98;6.43;;;;;;;;;;5050686;28;20024;-72
2021/01/18 09:18:22;;;;;;;9.18;6.32;;;;;;;;;;5050240;28;20079;-73
2021/01/18 09:20:49;;;;;;;12.30;6.88;;;;;;;;;;5050835;28;20021;-74
2021/01/18 09:23:15;;;;;;;11.82;6.03;;;;;;;;;;5050916;28;20021;-75
2021/01/18 09:25:42;;;;;;;11.27;6.03;;;;;;;;;;5050950;28;20044;-75
2021/01/18 09:28:08;;;;;;;13.05;6.82;;;;;;;;;;5050017;28;20025;-76
2021/01/18 09:30:35;;;;;;;9.52;6.35;;;;;;;;;;5050862;28;20033;-81
2021/01/18 09:33:02;;;;;;;9.93;6.28;;;;;;;;;;5051090;28;20017;-74
2021/01/18 09:35:30;;;;;;;10.23;6.82;;;;;;;;;;5049543;28;20033;-75
2021/01/18 09:37:58;;;;;;;15.57;6.43;;;;;;;;;;5050681;28;20021;-74
2021/01/18 09:40:24;;;;;;;10.23;6.68;;;;;;;;;;5031094;28;20056;-75
2021/01/18 09:42:52;;;;;;;9.55;6.05;;;;;;;;;;5030834;28;20504;-74
2021/01/18 09:45:18;;;;;;;9.02;5.70;;;;;;;;;;5040353;28;20049;-75
2021/01/18 09:47:44;;;;;;;8.30;5.53;;;;;;;;;;5050730;28;20048;-76
2021/01/18 09:50:10;;;;;;;11.10;6.85;;;;;;;;;;5050272;28;20033;-75
2021/01/18 09:52:43;;;;;;;8.60;5.30;;;;;;;;;;5050695;28;20039;-76
2021/01/18 09:55:10;;;;;;;8.65;5.63;;;;;;;;;;5050822;28;20029;-74
2021/01/18 09:57:41;;;;;;;8.20;5.45;;;;;;;;;;5050496;28;20380;-73
2021/01/18 10:00:09;;;;;;;8.55;5.25;;;;;;;;;;5049831;28;20436;-75
2021/01/18 10:02:37;;;;;;;9.18;5.25;;;;;;;;;;5050814;28;20481;-76
2021/01/18 10:05:03;;;;;;;8.50;5.47;;;;;;;;;;5049375;28;20033;-73
2021/01/18 10:07:29;;;;;;;9.82;5.10;;;;;;;;;;5050500;28;20032;-78
2021/01/18 10:09:56;;;;;;;7.05;4.88;;;;;;;;;;5047070;28;20039;-75
2021/01/18 10:12:24;;;;;;;8.18;4.90;;;;;;;;;;5029638;28;20028;-79
2021/01/18 10:14:51;;;;;;;8.05;4.95;;;;;;;;;;5029815;28;20432;-83
2021/01/18 10:17:18;;;;;;;8.20;4.90;;;;;;;;;;5031143;28;20037;-80
2021/01/18 10:19:44;;;;;;;7.03;4.60;;;;;;;;;;5029569;28;20033;-75
2021/01/18 10:22:17;;;;;;;6.18;4.55;;;;;;;;;;5030997;28;20083;-77
2021/01/18 10:24:53;;;;;;;9.25;4.72;;;;;;;;;;5030793;28;20096;-75
2021/01/18 10:27:24;;;;;;;6.72;4.22;;;;;;;;;;5030788;28;20052;-77
2021/01/18 10:29:50;;;;;;;6.28;4.20;;;;;;;;;;5034335;28;20037;-78
2021/01/18 10:32:16;;;;;;;7.13;4.68;;;;;;;;;;5047986;28;20423;-73
2021/01/18 10:34:42;;;;;;;7.82;4.78;;;;;;;;;;5046510;28;20033;-74
2021/01/18 10:37:12;;;;;;;8.07;4.80;;;;;;;;;;5050464;28;20071;-80
2021/01/18 10:39:39;;;;;;;6.78;4.65;;;;;;;;;;5053117;28;20020;-75
2021/01/18 10:42:06;;;;;;;8.80;4.95;;;;;;;;;;5043079;28;20024;-81
2021/01/18 10:44:33;;;;;;;9.10;5.05;;;;;;;;;;5034103;28;20026;-76
2021/01/18 10:46:59;;;;;;;6.13;4.10;;;;;;;;;;5032774;28;20087;-78
2021/01/18 10:49:29;;;;;;;6.50;4.18;;;;;;;;;;5034010;28;20025;-75
2021/01/18 10:51:59;;;;;;;6.70;4.63;;;;;;;;;;5034001;28;20031;-76
2021/01/18 10:54:25;;;;;;;7.25;4.35;;;;;;;;;;5033687;28;20021;-76
2021/01/18 10:56:53;;;;;;;6.22;3.97;;;;;;;;;;5033820;28;20022;-74
2021/01/18 10:59:19;;;;;;;6.75;4.60;;;;;;;;;;5032571;28;20063;-73
2021/01/18 11:02:04;;;;;;;7.20;4.50;;;;;;;;;;5034384;28;20018;-88
2021/01/18 11:04:30;;;;;;;6.63;4.25;;;;;;;;;;5032976;28;20030;-76
2021/01/18 11:06:56;;;;;;;7.40;4.50;;;;;;;;;;5033554;28;20028;-74
2021/01/18 11:09:29;;;;;;;6.07;4.10;;;;;;;;;;5033715;28;20021;-74
2021/01/18 11:11:56;;;;;;;6.57;4.25;;;;;;;;;;5033938;28;20080;-76
2021/01/18 11:14:23;;;;;;;6.97;4.20;;;;;;;;;;5033655;28;20101;-76
2021/01/18 11:16:58;;;;;;;6.63;4.20;;;;;;;;;;5033489;28;20021;-81
2021/01/18 11:19:25;;;;;;;8.27;4.30;;;;;;;;;;5033485;28;20471;-76
2021/01/18 11:21:51;;;;;;;6.03;4.25;;;;;;;;;;5032262;28;20392;-74
2021/01/18 11:24:17;;;;;;;6.55;4.32;;;;;;;;;;5033432;28;20515;-77
2021/01/18 11:26:47;;;;;;;5.65;3.70;;;;;;;;;;5033242;28;20025;-75
2021/01/18 11:29:13;;;;;;;7.63;4.45;;;;;;;;;;5047013;28;20036;-75
2021/01/18 11:31:39;;;;;;;9.15;3.97;;;;;;;;;;5053133;28;20021;-79
2021/01/18 11:34:05;;;;;;;7.00;4.50;;;;;;;;;;5052984;28;20033;-76
2021/01/18 11:36:31;;;;;;;6.72;4.05;;;;;;;;;;5053190;28;20017;-75
2021/01/18 11:38:57;;;;;;;6.30;4.15;;;;;;;;;;5052650;28;20606;-78
2021/01/18 11:41:23;;;;;;;7.05;4.50;;;;;;;;;;5051184;28;20025;-75
2021/01/18 11:43:49;;;;;;;8.20;4.82;;;;;;;;;;5051578;28;20459;-78
2021/01/18 11:46:16;;;;;;;9.60;5.03;;;;;;;;;;5052884;28;20021;-74
2021/01/18 11:48:43;;;;;;;7.30;4.72;;;;;;;;;;5041339;28;20037;-71
2021/01/18 11:51:09;;;;;;;10.98;4.90;;;;;;;;;;5048195;28;20025;-80
2021/01/18 11:53:35;;;;;;;6.57;4.60;;;;;;;;;;5050931;28;20082;-80
2021/01/18 11:56:01;;;;;;;8.02;5.13;;;;;;;;;;5033617;28;20026;-79
2021/01/18 11:58:27;;;;;;;7.82;5.10;;;;;;;;;;5031649;28;20072;-74
2021/01/18 12:00:53;;;;;;;8.07;5.13;;;;;;;;;;5031325;28;20096;-76
2021/01/18 12:03:20;;;;;;;7.63;5.07;;;;;;;;;;5032562;28;20048;-76
2021/01/18 12:05:46;;;;;;;7.38;4.88;;;;;;;;;;5033112;28;20504;-76
2021/01/18 12:08:12;;;;;;;7.95;4.63;;;;;;;;;;5051229;28;20517;-74
2021/01/18 12:10:39;;;;;;;7.57;4.80;;;;;;;;;;5052338;28;20063;-79
2021/01/18 12:13:05;;;;;;;7.60;4.95;;;;;;;;;;5050845;28;20108;-77
2021/01/18 12:15:32;;;;;;;9.73;4.72;;;;;;;;;;5051142;28;20021;-72
2021/01/18 12:17:58;;;;;;;8.07;4.72;;;;;;;;;;5051192;28;20024;-80
2021/01/18 12:20:24;;;;;;;7.93;5.15;;;;;;;;;;5053241;28;20021;-89
2021/01/18 12:22:54;;;;;;;9.05;5.20;;;;;;;;;;5052360;28;20597;-82
2021/01/18 12:25:20;;;;;;;7.93;5.03;;;;;;;;;;5052291;28;20025;-77
2021/01/18 12:27:54;;;;;;;7.80;4.63;;;;;;;;;;5049700;28;20029;-73
2021/01/18 12:30:21;;;;;;;7.30;4.95;;;;;;;;;;5032315;28;20041;-76
2021/01/18 12:32:47;;;;;;;9.65;5.18;;;;;;;;;;5032231;28;20489;-74
2021/01/18 12:35:13;;;;;;;8.55;5.60;;;;;;;;;;5032144;28;20034;-76
2021/01/18 12:37:40;;;;;;;9.32;5.45;;;;;;;;;;5030941;28;20171;-76
2021/01/18 12:40:06;;;;;;;8.55;5.50;;;;;;;;;;5030589;28;20029;-76
2021/01/18 12:42:34;;;;;;;8.43;5.38;;;;;;;;;;5031879;28;20077;-78
2021/01/18 12:45:00;;;;;;;9.23;5.22;;;;;;;;;;5030633;28;20025;-78
2021/01/18 12:47:26;;;;;;;8.80;5.43;;;;;;;;;;5032014;28;20021;-77
2021/01/18 12:49:52;;;;;;;9.23;5.10;;;;;;;;;;5030459;28;20025;-81
2021/01/18 12:52:18;;;;;;;8.52;5.32;;;;;;;;;;5031578;28;20481;-79
2021/01/18 12:54:48;;;;;;;9.35;5.70;;;;;;;;;;5031659;28;20037;-72
2021/01/18 12:57:14;;;;;;;14.07;5.40;;;;;;;;;;5030167;28;20022;-71
2021/01/18 12:59:40;;;;;;;8.43;5.57;;;;;;;;;;5046430;28;20021;-75
2021/01/18 13:02:07;;;;;;;19.38;6.40;;;;;;;;;;5050122;28;20025;-72
2021/01/18 13:04:33;;;;;;;21.63;6.40;;;;;;;;;;5050156;28;20047;-75
2021/01/18 13:06:59;;;;;;;10.57;5.75;;;;;;;;;;5050647;28;20025;-76
2021/01/18 13:09:25;;;;;;;14.27;5.25;;;;;;;;;;5049913;28;20025;-76
2021/01/18 13:11:53;;;;;;;9.07;5.80;;;;;;;;;;5049679;28;20029;-75
2021/01/18 13:14:20;;;;;;;9.95;6.07;;;;;;;;;;5048382;28;20017;-76
2021/01/18 13:16:46;;;;;;;8.95;5.57;;;;;;;;;;5050936;28;20439;-76
2021/01/18 13:19:13;;;;;;;11.45;6.15;;;;;;;;;;5049680;28;20031;-76
2021/01/18 13:21:39;;;;;;;9.13;6.07;;;;;;;;;;5050875;28;20318;-76
2021/01/18 13:24:05;;;;;;;11.15;6.22;;;;;;;;;;5050770;28;20028;-76
2021/01/18 13:26:36;;;;;;;10.15;6.20;;;;;;;;;;5050685;28;20043;-76
2021/01/18 13:29:02;;;;;;;11.88;6.05;;;;;;;;;;5036761;28;20501;-76
2021/01/18 13:31:35;;;;;;;12.18;6.95;;;;;;;;;;5030144;28;20091;-76
2021/01/18 13:34:01;;;;;;;16.38;6.75;;;;;;;;;;5029734;28;20032;-76
2021/01/18 13:36:28;;;;;;;24.70;7.28;;;;;;;;;;5030132;28;20423;-75
2021/01/18 13:38:54;;;;;;;21.50;6.45;;;;;;;;;;5031159;28;20018;-75
2021/01/18 13:41:21;;;;;;;19.98;7.90;;;;;;;;;;5029931;28;20028;-74
2021/01/18 13:43:47;;;;;;;19.40;7.80;;;;;;;;;;5035010;28;20408;-75
2021/01/18 13:46:17;;;;;;;15.18;7.03;;;;;;;;;;5050655;28;20024;-71
2021/01/18 13:48:44;;;;;;;11.90;6.50;;;;;;;;;;5049782;28;20537;-75
2021/01/18 13:51:14;;;;;;;18.27;6.93;;;;;;;;;;5048896;28;20465;-77
2021/01/18 13:53:40;;;;;;;20.92;7.43;;;;;;;;;;5049324;28;20053;-69
2021/01/18 13:56:07;;;;;;;17.95;6.57;;;;;;;;;;5051072;28;20109;-71
2021/01/18 13:58:33;;;;;;;19.58;6.30;;;;;;;;;;5049759;28;20025;-71
2021/01/18 14:00:59;;;;;;;13.70;6.45;;;;;;;;;;5049571;28;20508;-71
2021/01/18 14:03:25;;;;;;;15.25;6.75;;;;;;;;;;5052457;28;20029;-69
2021/01/18 14:05:51;;;;;;;14.40;6.93;;;;;;;;;;5053420;28;20017;-71
2021/01/18 14:08:17;;;;;;;11.77;6.13;;;;;;;;;;5053450;28;20459;-72
2021/01/18 14:10:43;;;;;;;12.10;6.15;;;;;;;;;;5053448;28;20039;-73
2021/01/18 14:13:09;;;;;;;15.48;7.05;;;;;;;;;;5054147;28;20024;-74
2021/01/18 14:15:35;;;;;;;12.40;6.45;;;;;;;;;;5052868;28;20031;-74
2021/01/18 14:18:02;;;;;;;17.27;7.07;;;;;;;;;;5054484;28;20021;-73
2021/01/18 14:20:28;;;;;;;10.30;5.72;;;;;;;;;;5054291;28;20017;-71
2021/01/18 14:22:54;;;;;;;13.85;6.93;;;;;;;;;;5054105;28;20024;-70
2021/01/18 14:25:20;;;;;;;14.50;6.43;;;;;;;;;;5054408;28;20025;-72
2021/01/18 14:27:46;;;;;;;13.15;6.35;;;;;;;;;;5051787;28;20642;-70
2021/01/18 14:30:13;;;;;;;11.75;6.07;;;;;;;;;;5034359;28;20456;-71
2021/01/18 14:32:39;;;;;;;11.48;6.88;;;;;;;;;;5034457;28;20025;-74
2021/01/18 14:35:06;;;;;;;9.73;6.03;;;;;;;;;;5034172;28;20100;-73